createdAt,value
2023-02-26T00:01:19.618Z,100854.38
2023-02-26T00:04:07.049Z,100860.94
2023-02-26T00:06:54.031Z,100865.03
2023-02-26T00:09:43.126Z,100878.03
2023-02-26T00:12:29.848Z,100870.47
2023-02-26T00:15:15.748Z,100866.69
2023-02-26T00:18:09.787Z,100867.34
2023-02-26T00:20:55.350Z,100870.31
2023-02-26T00:23:40.658Z,100878.63
2023-02-26T00:26:27.336Z,100875.94
2023-02-26T00:29:13.378Z,100884.69
2023-02-26T00:31:58.961Z,100891.03
2023-02-26T00:34:46.447Z,100898.44
2023-02-26T00:37:34.963Z,100911.13
2023-02-26T00:40:23.439Z,100923.91
2023-02-26T00:43:22.428Z,100916.50
2023-02-26T00:46:27.984Z,100926.63
2023-02-26T00:49:45.520Z,100928.59
2023-02-26T00:52:47.798Z,100928.47
2023-02-26T00:55:33.242Z,100941.06
2023-02-26T00:58:18.219Z,100941.19
2023-02-26T01:01:03.128Z,100949.25
2023-02-26T01:03:48.662Z,100954.75
2023-02-26T01:06:38.528Z,100955.69
2023-02-26T01:09:32.727Z,100950.16
2023-02-26T01:12:17.911Z,100961.25
2023-02-26T01:15:04.776Z,100964.38
2023-02-26T01:18:01.881Z,100954.66
2023-02-26T01:20:51.934Z,100961.84
2023-02-26T01:23:41.611Z,100959.19
2023-02-26T01:26:28.679Z,100969.09
2023-02-26T01:29:13.942Z,100969.03
2023-02-26T01:32:11.326Z,100961.25
2023-02-26T01:34:56.536Z,100950.56
2023-02-26T01:37:57.289Z,100946.00
2023-02-26T01:41:05.974Z,100943.75
2023-02-26T01:44:03.753Z,100945.09
2023-02-26T01:47:13.235Z,100932.59
2023-02-26T01:50:05.971Z,100923.91
2023-02-26T01:52:51.425Z,100916.97
2023-02-26T01:55:37.249Z,100914.72
2023-02-26T01:58:25.091Z,100908.78
2023-02-26T02:01:10.549Z,100897.03
2023-02-26T02:03:55.720Z,100893.34
2023-02-26T02:06:40.630Z,100880.84
2023-02-26T02:09:26.855Z,100877.50
2023-02-26T02:12:34.258Z,100880.66
2023-02-26T02:15:38.575Z,100879.25
2023-02-26T02:18:56.498Z,100864.50
2023-02-26T02:21:48.949Z,100866.03
2023-02-26T02:25:09.096Z,100862.25
2023-02-26T02:28:19.127Z,100853.69
2023-02-26T02:31:10.375Z,100855.03
2023-02-26T02:34:13.932Z,100863.53
2023-02-26T02:37:14.676Z,100863.94
2023-02-26T02:40:12.089Z,100875.53
2023-02-26T02:43:18.252Z,100875.34
2023-02-26T02:46:11.733Z,100885.03
2023-02-26T02:49:12.053Z,100890.41
2023-02-26T02:52:05.555Z,100896.38
2023-02-26T02:54:57.430Z,100894.16
2023-02-26T02:57:57.895Z,100907.22
2023-02-26T03:00:48.810Z,100922.88
2023-02-26T03:03:47.192Z,100919.22
2023-02-26T03:06:33.464Z,100925.63
2023-02-26T03:09:18.928Z,100927.28
2023-02-26T03:12:04.514Z,100926.00
2023-02-26T03:14:49.781Z,100932.06
2023-02-26T03:17:59.933Z,100937.47
2023-02-26T03:21:04.417Z,100948.28
2023-02-26T03:24:06.648Z,100958.44
2023-02-26T03:27:00.263Z,100969.69
2023-02-26T03:30:04.860Z,100974.19
2023-02-26T03:33:22.023Z,100972.53
2023-02-26T03:36:14.515Z,100981.34
2023-02-26T03:39:20.986Z,100984.00
2023-02-26T03:42:29.640Z,100986.66
2023-02-26T03:45:18.073Z,101002.50
2023-02-26T03:48:07.107Z,101000.56
2023-02-26T03:50:55.102Z,101000.34
2023-02-26T03:53:52.353Z,101015.44
2023-02-26T03:56:44.643Z,101012.44
2023-02-26T03:59:30.507Z,101011.34
2023-02-26T04:02:28.424Z,101024.25
2023-02-26T04:05:18.527Z,101025.28
2023-02-26T04:08:03.723Z,101040.56
2023-02-26T04:10:58.850Z,101042.25
2023-02-26T04:13:44.686Z,101050.06
2023-02-26T04:16:29.825Z,101049.97
2023-02-26T04:19:15.011Z,101060.19
2023-02-26T04:22:00.312Z,101060.31
2023-02-26T04:24:45.629Z,101057.13
2023-02-26T04:27:31.219Z,101070.94
2023-02-26T04:30:16.953Z,101070.81
2023-02-26T04:33:01.961Z,101074.34
2023-02-26T04:35:47.162Z,101075.56
2023-02-26T04:38:32.720Z,101086.16
2023-02-26T04:41:18.258Z,101082.81
2023-02-26T04:44:04.107Z,101098.47
2023-02-26T04:46:49.775Z,101099.03
2023-02-26T04:49:35.108Z,101102.22
2023-02-26T04:52:19.975Z,101111.22
2023-02-26T04:55:06.170Z,101113.25
2023-02-26T04:57:51.464Z,101114.63
2023-02-26T05:00:36.537Z,101116.72
2023-02-26T05:03:21.665Z,101118.38
2023-02-26T05:06:07.210Z,101125.69
2023-02-26T05:08:52.637Z,101130.75
2023-02-26T05:11:37.909Z,101140.25
2023-02-26T05:14:22.818Z,101131.84
2023-02-26T05:17:07.650Z,101140.84
2023-02-26T05:19:52.732Z,101152.41
2023-02-26T05:22:38.767Z,101146.81
2023-02-26T05:25:24.123Z,101156.88
2023-02-26T05:28:09.521Z,101158.28
2023-02-26T05:30:56.969Z,101159.16
2023-02-26T05:33:42.587Z,101170.31
2023-02-26T05:36:27.813Z,101177.25
2023-02-26T05:39:12.826Z,101175.03
2023-02-26T05:41:58.328Z,101182.31
2023-02-26T05:44:43.715Z,101179.78
2023-02-26T05:47:28.978Z,101185.16
2023-02-26T05:50:14.525Z,101187.91
2023-02-26T05:52:59.903Z,101204.63
2023-02-26T05:55:45.476Z,101207.16
2023-02-26T05:58:30.649Z,101212.66
2023-02-26T06:01:15.796Z,101222.94
2023-02-26T06:04:00.952Z,101237.25
2023-02-26T06:06:45.970Z,101245.59
2023-02-26T06:09:30.888Z,101248.31
2023-02-26T06:12:16.054Z,101254.28
2023-02-26T06:15:01.034Z,101252.38
2023-02-26T06:17:46.322Z,101272.56
2023-02-26T06:20:31.866Z,101284.47
2023-02-26T06:23:16.680Z,101289.28
2023-02-26T06:26:02.218Z,101297.31
2023-02-26T06:28:47.031Z,101296.69
2023-02-26T06:31:32.541Z,101293.06
2023-02-26T06:34:18.226Z,101293.38
2023-02-26T06:37:03.315Z,101297.78
2023-02-26T06:39:48.714Z,101307.06
2023-02-26T06:42:33.990Z,101303.28
2023-02-26T06:45:18.973Z,101312.00
2023-02-26T06:48:04.470Z,101309.59
2023-02-26T06:50:49.240Z,101309.41
2023-02-26T06:53:34.778Z,101321.09
2023-02-26T06:56:19.643Z,101323.47
2023-02-26T06:59:05.136Z,101333.84
2023-02-26T07:01:50.569Z,101340.91
2023-02-26T07:04:35.749Z,101345.09
2023-02-26T07:07:21.183Z,101344.88
2023-02-26T07:10:06.983Z,101353.56
2023-02-26T07:12:51.909Z,101353.66
2023-02-26T07:15:36.629Z,101334.88
2023-02-26T07:18:21.606Z,101330.16
2023-02-26T07:21:06.868Z,101325.88
2023-02-26T07:23:51.780Z,101309.13
2023-02-26T07:26:37.275Z,101318.16
2023-02-26T07:29:22.663Z,101327.25
2023-02-26T07:32:07.615Z,101319.91
2023-02-26T07:34:52.873Z,101332.16
2023-02-26T07:37:38.190Z,101325.00
2023-02-26T07:40:23.660Z,101325.84
2023-02-26T07:43:08.895Z,101336.38
2023-02-26T07:45:53.743Z,101335.16
2023-02-26T07:48:38.660Z,101333.25
2023-02-26T07:51:24.271Z,101348.38
2023-02-26T07:54:09.549Z,101355.47
2023-02-26T07:56:54.723Z,101356.13
2023-02-26T07:59:40.143Z,101372.38
2023-02-26T08:02:25.136Z,101372.94
2023-02-26T08:05:10.299Z,101370.66
2023-02-26T08:07:55.480Z,101369.94
2023-02-26T08:10:42.034Z,101376.25
2023-02-26T08:13:27.968Z,101378.50
2023-02-26T08:16:13.116Z,101378.38
2023-02-26T08:18:59.888Z,101378.41
2023-02-26T08:21:44.919Z,101377.97
2023-02-26T08:24:29.968Z,101375.50
2023-02-26T08:27:14.857Z,101370.78
2023-02-26T08:30:01.665Z,101372.88
2023-02-26T08:32:47.163Z,101367.00
2023-02-26T08:35:32.692Z,101361.03
2023-02-26T08:38:18.014Z,101355.63
2023-02-26T08:41:03.294Z,101354.56
2023-02-26T08:43:48.581Z,101344.00
2023-02-26T08:46:34.587Z,101330.97
2023-02-26T08:49:19.665Z,101317.53
2023-02-26T08:52:04.956Z,101297.78
2023-02-26T08:54:50.354Z,101292.50
2023-02-26T08:57:35.767Z,101289.13
2023-02-26T09:00:21.363Z,101274.81
2023-02-26T09:03:06.526Z,101274.66
2023-02-26T09:05:51.862Z,101275.00
2023-02-26T09:08:37.354Z,101278.16
2023-02-26T09:11:22.681Z,101283.06
2023-02-26T09:14:08.067Z,101308.16
2023-02-26T09:16:53.094Z,101292.28
2023-02-26T09:19:38.303Z,101276.00
2023-02-26T09:22:23.109Z,101251.13
2023-02-26T09:25:08.213Z,101221.63
2023-02-26T09:27:53.346Z,101210.03
2023-02-26T09:30:38.192Z,101195.38
2023-02-26T09:33:23.805Z,101209.97
2023-02-26T09:36:09.702Z,101202.50
2023-02-26T09:38:55.017Z,101146.06
2023-02-26T09:41:50.813Z,101136.81
2023-02-26T09:44:38.397Z,101112.84
2023-02-26T09:47:28.825Z,101111.47
2023-02-26T09:50:47.040Z,101151.63
2023-02-26T09:53:37.572Z,101131.28
2023-02-26T09:56:26.769Z,101085.31
2023-02-26T09:59:12.566Z,101122.56
2023-02-26T10:02:07.092Z,101088.88
2023-02-26T10:05:23.468Z,101076.44
2023-02-26T10:08:16.153Z,101042.19
2023-02-26T10:11:01.590Z,101040.63
2023-02-26T10:13:57.704Z,101011.38
2023-02-26T10:16:49.338Z,101037.31
2023-02-26T10:19:38.994Z,101015.53
2023-02-26T10:22:32.265Z,101006.34
2023-02-26T10:25:25.617Z,100945.66
2023-02-26T10:28:39.204Z,100958.28
2023-02-26T10:31:59.022Z,100992.63
2023-02-26T10:35:15.508Z,100983.13
2023-02-26T10:38:11.573Z,100980.16
2023-02-26T10:41:08.982Z,100968.53
2023-02-26T10:44:16.259Z,100995.16
2023-02-26T10:47:27.975Z,101024.16
2023-02-26T10:50:17.284Z,101046.66
2023-02-26T10:53:03.952Z,100985.44
2023-02-26T10:55:59.370Z,101013.78
2023-02-26T10:58:46.022Z,100988.31
2023-02-26T11:01:32.099Z,100912.31
2023-02-26T11:04:21.527Z,100948.88
2023-02-26T11:07:07.096Z,100926.19
2023-02-26T11:09:53.630Z,100962.13
2023-02-26T11:12:38.971Z,100921.31
2023-02-26T11:15:26.945Z,100954.66
2023-02-26T11:18:20.144Z,100909.66
2023-02-26T11:21:06.498Z,100922.66
2023-02-26T11:24:02.915Z,100921.66
2023-02-26T11:26:53.759Z,100893.00
2023-02-26T11:29:48.020Z,100901.91
2023-02-26T11:32:35.631Z,100894.03
2023-02-26T11:35:25.066Z,100905.78
2023-02-26T11:38:18.378Z,100866.88
2023-02-26T11:41:05.559Z,100956.28
2023-02-26T11:44:01.164Z,100922.00
2023-02-26T11:46:55.891Z,100870.06
2023-02-26T11:49:49.987Z,100896.47
2023-02-26T11:52:41.042Z,100936.59
2023-02-26T11:55:34.117Z,100893.22
2023-02-26T11:58:24.090Z,100944.34
2023-02-26T12:01:12.307Z,101010.56
2023-02-26T12:04:00.785Z,101046.75
2023-02-26T12:06:56.371Z,101016.28
2023-02-26T12:09:42.847Z,100999.34
2023-02-26T12:12:47.824Z,101014.50
2023-02-26T12:15:59.274Z,101054.16
2023-02-26T12:19:29.093Z,101036.31
2023-02-26T12:22:49.499Z,101005.38
2023-02-26T12:25:49.789Z,100967.88
2023-02-26T12:28:44.026Z,100961.81
2023-02-26T12:31:44.894Z,100905.94
2023-02-26T12:35:10.069Z,100950.66
2023-02-26T12:38:19.540Z,100957.78
2023-02-26T12:41:30.088Z,100975.59
2023-02-26T12:44:18.028Z,100913.09
2023-02-26T12:47:27.734Z,100935.03
2023-02-26T12:50:44.787Z,100896.50
2023-02-26T12:53:38.901Z,100911.50
2023-02-26T12:56:36.801Z,100948.06
2023-02-26T12:59:25.001Z,100999.88
2023-02-26T13:02:31.959Z,100982.56
2023-02-26T13:05:33.715Z,100961.91
2023-02-26T13:08:34.403Z,100948.09
2023-02-26T13:11:24.002Z,100924.03
2023-02-26T13:14:30.577Z,100908.38
2023-02-26T13:17:18.696Z,100922.38
2023-02-26T13:20:17.936Z,100964.66
2023-02-26T13:23:14.776Z,100973.59
2023-02-26T13:26:04.855Z,101021.66
2023-02-26T13:29:06.253Z,101050.16
2023-02-26T13:31:58.824Z,101045.72
2023-02-26T13:34:57.563Z,101056.88
2023-02-26T13:37:48.861Z,101107.31
2023-02-26T13:40:43.581Z,101110.38
2023-02-26T13:44:03.962Z,101011.84
2023-02-26T13:46:55.632Z,101003.28
2023-02-26T13:50:12.592Z,100893.91
2023-02-26T13:53:24.158Z,100908.81
2023-02-26T13:56:32.243Z,100907.41
2023-02-26T13:59:20.324Z,100939.50
2023-02-26T14:02:18.837Z,100939.81
2023-02-26T14:05:11.582Z,100981.78
2023-02-26T14:08:38.256Z,100908.72
2023-02-26T14:11:44.571Z,100921.97
2023-02-26T14:14:43.209Z,100961.00
2023-02-26T14:18:00.834Z,101084.50
2023-02-26T14:20:46.555Z,101054.19
2023-02-26T14:23:37.080Z,101036.50
2023-02-26T14:26:23.919Z,101034.09
2023-02-26T14:29:16.677Z,100949.53
2023-02-26T14:32:06.575Z,100969.72
2023-02-26T14:34:55.148Z,100933.47
2023-02-26T14:37:41.071Z,100978.25
2023-02-26T14:40:29.464Z,100999.25
2023-02-26T14:43:34.664Z,100899.63
2023-02-26T14:46:20.271Z,100937.28
2023-02-26T14:49:14.392Z,100969.34
2023-02-26T14:52:31.723Z,100963.31
2023-02-26T14:55:39.408Z,100993.16
2023-02-26T14:59:06.238Z,101002.53
2023-02-26T15:02:12.964Z,101055.56
2023-02-26T15:05:13.606Z,101008.34
2023-02-26T15:08:10.658Z,101027.41
2023-02-26T15:11:21.210Z,101002.31
2023-02-26T15:14:49.175Z,100954.47
2023-02-26T15:17:53.009Z,100991.47
2023-02-26T15:21:03.421Z,101030.91
2023-02-26T15:23:54.560Z,101006.41
2023-02-26T15:26:54.384Z,100972.22
2023-02-26T15:29:41.317Z,100970.06
2023-02-26T15:32:29.951Z,100974.25
2023-02-26T15:35:22.364Z,100961.31
2023-02-26T15:38:09.164Z,100989.09
2023-02-26T15:41:00.106Z,100992.38
2023-02-26T15:43:50.854Z,101017.03
2023-02-26T15:46:40.021Z,101063.63
2023-02-26T15:49:28.893Z,101056.56
2023-02-26T15:52:18.301Z,101064.56
2023-02-26T15:55:05.895Z,101044.69
2023-02-26T15:57:53.233Z,101081.13
2023-02-26T16:00:38.337Z,101101.25
2023-02-26T16:03:38.154Z,101091.25
2023-02-26T16:06:29.704Z,101108.81
2023-02-26T16:09:25.218Z,101122.28
2023-02-26T16:12:18.321Z,101159.13
2023-02-26T16:15:07.664Z,101167.19
2023-02-26T16:17:55.403Z,101150.09
2023-02-26T16:20:44.122Z,101093.28
2023-02-26T16:23:41.163Z,101101.72
2023-02-26T16:26:49.155Z,101111.78
2023-02-26T16:29:36.226Z,101139.06
2023-02-26T16:32:23.842Z,101163.84
2023-02-26T16:35:12.541Z,101220.53
2023-02-26T16:37:57.351Z,101271.16
2023-02-26T16:40:44.718Z,101274.81
2023-02-26T16:43:34.378Z,101285.44
2023-02-26T16:46:34.901Z,101286.03
2023-02-26T16:49:32.064Z,101291.44
2023-02-26T16:52:24.225Z,101300.91
2023-02-26T16:55:13.298Z,101312.47
2023-02-26T16:57:59.985Z,101331.25
2023-02-26T17:00:46.843Z,101348.25
2023-02-26T17:03:32.237Z,101361.41
2023-02-26T17:06:18.217Z,101369.94
2023-02-26T17:09:06.143Z,101376.97
2023-02-26T17:12:02.591Z,101390.78
2023-02-26T17:14:55.583Z,101407.56
2023-02-26T17:17:40.414Z,101424.78
2023-02-26T17:20:26.407Z,101404.81
2023-02-26T17:23:15.383Z,101414.59
2023-02-26T17:26:00.689Z,101421.56
2023-02-26T17:28:46.162Z,101437.09
2023-02-26T17:31:31.112Z,101446.72
2023-02-26T17:34:19.148Z,101454.91
2023-02-26T17:37:04.399Z,101461.69
2023-02-26T17:39:49.494Z,101470.84
2023-02-26T17:42:34.741Z,101465.34
2023-02-26T17:45:20.923Z,101477.25
2023-02-26T17:48:06.920Z,101474.88
2023-02-26T17:50:56.931Z,101495.03
2023-02-26T17:53:41.959Z,101494.66
2023-02-26T17:56:29.394Z,101512.66
2023-02-26T17:59:14.883Z,101514.59
2023-02-26T18:02:00.621Z,101519.34
2023-02-26T18:04:46.217Z,101531.41
2023-02-26T18:07:31.344Z,101525.69
2023-02-26T18:10:24.782Z,101532.47
2023-02-26T18:13:10.780Z,101538.72
2023-02-26T18:15:56.757Z,101539.28
2023-02-26T18:18:42.120Z,101532.22
2023-02-26T18:21:27.642Z,101550.09
2023-02-26T18:24:12.669Z,101544.63
2023-02-26T18:26:57.679Z,101550.50
2023-02-26T18:29:43.562Z,101549.34
2023-02-26T18:32:28.890Z,101546.81
2023-02-26T18:35:13.991Z,101555.16
2023-02-26T18:37:59.054Z,101568.47
2023-02-26T18:40:45.553Z,101561.81
2023-02-26T18:43:30.734Z,101584.00
2023-02-26T18:46:15.580Z,101584.41
2023-02-26T18:49:00.929Z,101587.81
2023-02-26T18:51:45.925Z,101595.09
2023-02-26T18:54:30.918Z,101586.47
2023-02-26T18:57:16.089Z,101598.63
2023-02-26T19:00:01.482Z,101599.41
2023-02-26T19:02:47.493Z,101600.56
2023-02-26T19:05:32.611Z,101610.31
2023-02-26T19:08:17.590Z,101617.13
2023-02-26T19:11:02.933Z,101612.56
2023-02-26T19:13:49.870Z,101626.13
2023-02-26T19:16:35.087Z,101639.97
2023-02-26T19:19:21.239Z,101639.28
2023-02-26T19:22:06.413Z,101646.66
2023-02-26T19:24:51.657Z,101648.69
2023-02-26T19:27:36.831Z,101656.81
2023-02-26T19:30:23.144Z,101670.41
2023-02-26T19:33:08.295Z,101677.22
2023-02-26T19:35:53.291Z,101668.81
2023-02-26T19:38:38.305Z,101665.41
2023-02-26T19:41:23.285Z,101666.72
2023-02-26T19:44:08.537Z,101668.59
2023-02-26T19:46:53.767Z,101657.75
2023-02-26T19:49:39.145Z,101672.91
2023-02-26T19:52:24.144Z,101671.63
2023-02-26T19:55:09.637Z,101683.25
2023-02-26T19:57:55.066Z,101679.94
2023-02-26T20:00:40.354Z,101699.59
2023-02-26T20:03:25.409Z,101710.69
2023-02-26T20:06:10.384Z,101714.81
2023-02-26T20:08:55.882Z,101728.38
2023-02-26T20:11:41.393Z,101739.25
2023-02-26T20:14:26.810Z,101772.47
2023-02-26T20:17:12.471Z,101759.28
2023-02-26T20:19:58.335Z,101771.81
2023-02-26T20:22:43.373Z,101783.34
2023-02-26T20:25:30.833Z,101785.75
2023-02-26T20:28:17.642Z,101795.94
2023-02-26T20:31:04.619Z,101792.84
2023-02-26T20:33:50.635Z,101783.75
2023-02-26T20:36:35.305Z,101798.63
2023-02-26T20:39:21.168Z,101797.38
2023-02-26T20:42:06.798Z,101797.22
2023-02-26T20:44:51.976Z,101796.97
2023-02-26T20:47:37.554Z,101817.72
2023-02-26T20:50:22.734Z,101819.44
2023-02-26T20:53:07.987Z,101832.56
2023-02-26T20:55:54.723Z,101837.13
2023-02-26T20:58:39.885Z,101844.63
2023-02-26T21:01:24.996Z,101845.97
2023-02-26T21:04:11.138Z,101871.56
2023-02-26T21:06:56.346Z,101869.25
2023-02-26T21:09:41.908Z,101865.44
2023-02-26T21:12:28.268Z,101877.13
2023-02-26T21:15:14.090Z,101873.28
2023-02-26T21:17:58.907Z,101888.34
2023-02-26T21:20:44.227Z,101904.75
2023-02-26T21:23:29.562Z,101915.69
2023-02-26T21:26:14.801Z,101925.22
2023-02-26T21:29:00.385Z,101943.81
2023-02-26T21:31:45.805Z,101925.63
2023-02-26T21:34:34.312Z,101941.38
2023-02-26T21:37:19.437Z,101929.94
2023-02-26T21:40:05.706Z,101929.56
2023-02-26T21:42:50.629Z,101923.06
2023-02-26T21:45:36.719Z,101918.13
2023-02-26T21:48:22.990Z,101919.66
2023-02-26T21:51:08.472Z,101913.81
2023-02-26T21:53:53.779Z,101905.28
2023-02-26T21:56:39.253Z,101894.50
2023-02-26T21:59:24.214Z,101898.59
2023-02-26T22:02:11.854Z,101897.41
2023-02-26T22:04:56.762Z,101897.66
2023-02-26T22:07:41.635Z,101895.03
2023-02-26T22:10:26.696Z,101891.56
2023-02-26T22:13:12.252Z,101893.06
2023-02-26T22:15:57.295Z,101887.50
2023-02-26T22:18:43.089Z,101888.38
2023-02-26T22:21:28.440Z,101887.81
2023-02-26T22:24:13.984Z,101878.25
2023-02-26T22:26:59.571Z,101875.31
2023-02-26T22:29:45.024Z,101878.81
2023-02-26T22:32:30.294Z,101868.53
2023-02-26T22:35:15.577Z,101865.75
2023-02-26T22:38:01.044Z,101868.06
2023-02-26T22:40:46.384Z,101872.59
2023-02-26T22:43:31.853Z,101880.47
2023-02-26T22:46:17.416Z,101875.63
2023-02-26T22:49:02.622Z,101880.44
2023-02-26T22:51:48.049Z,101887.19
2023-02-26T22:54:33.459Z,101883.00
2023-02-26T22:57:18.889Z,101886.66
2023-02-26T23:00:06.612Z,101884.94
2023-02-26T23:02:52.070Z,101896.13
2023-02-26T23:05:37.368Z,101894.84
2023-02-26T23:08:22.362Z,101907.38
2023-02-26T23:11:08.799Z,101905.66
2023-02-26T23:13:53.696Z,101898.59
2023-02-26T23:16:38.567Z,101910.56
2023-02-26T23:19:23.810Z,101905.50
2023-02-26T23:22:08.856Z,101911.38
2023-02-26T23:24:53.835Z,101904.41
2023-02-26T23:27:39.491Z,101919.91
2023-02-26T23:30:25.506Z,101917.28
2023-02-26T23:33:10.879Z,101923.00
2023-02-26T23:35:56.550Z,101930.41
2023-02-26T23:38:41.815Z,101933.59
2023-02-26T23:41:27.212Z,101942.16
2023-02-26T23:44:12.391Z,101950.16
2023-02-26T23:46:57.785Z,101953.84
2023-02-26T23:49:43.221Z,101958.31
2023-02-26T23:52:28.572Z,101963.38
2023-02-26T23:55:13.586Z,101975.97
2023-02-26T23:57:58.858Z,101984.09
